createdAt,value
2023-03-29T00:00:53.217Z,52.41
2023-03-29T00:01:48.778Z,52.00
2023-03-29T00:02:44.372Z,52.20
2023-03-29T00:03:40.595Z,51.68
2023-03-29T00:04:47.206Z,52.31
2023-03-29T00:05:43.272Z,52.51
2023-03-29T00:06:38.833Z,51.79
2023-03-29T00:07:34.871Z,51.58
2023-03-29T00:08:30.868Z,52.00
2023-03-29T00:09:26.927Z,52.10
2023-03-29T00:10:22.936Z,52.31
2023-03-29T00:11:20.002Z,52.93
2023-03-29T00:12:15.536Z,53.86
2023-03-29T00:13:11.611Z,53.65
2023-03-29T00:14:07.638Z,53.23
2023-03-29T00:15:03.174Z,52.72
2023-03-29T00:15:58.732Z,52.62
2023-03-29T00:16:54.333Z,53.03
2023-03-29T00:17:50.383Z,53.55
2023-03-29T00:18:46.381Z,53.96
2023-03-29T00:19:42.471Z,54.09
2023-03-29T00:20:39.433Z,53.34
2023-03-29T00:21:35.478Z,53.03
2023-03-29T00:22:31.058Z,53.55
2023-03-29T00:23:26.611Z,53.34
2023-03-29T00:24:23.659Z,53.65
2023-03-29T00:25:19.314Z,53.55
2023-03-29T00:26:14.811Z,53.13
2023-03-29T00:27:10.404Z,53.16
2023-03-29T00:28:07.450Z,53.16
2023-03-29T00:29:04.493Z,53.16
2023-03-29T00:30:01.567Z,53.36
2023-03-29T00:30:57.668Z,52.95
2023-03-29T00:32:05.905Z,53.34
2023-03-29T00:33:02.008Z,53.16
2023-03-29T00:33:57.526Z,53.99
2023-03-29T00:34:53.072Z,53.88
2023-03-29T00:35:59.932Z,53.99
2023-03-29T00:36:55.466Z,54.61
2023-03-29T00:37:51.498Z,54.19
2023-03-29T00:38:47.062Z,53.88
2023-03-29T00:39:42.629Z,54.19
2023-03-29T00:40:38.659Z,53.26
2023-03-29T00:41:35.211Z,53.26
2023-03-29T00:42:31.281Z,53.57
2023-03-29T00:43:26.817Z,53.99
2023-03-29T00:44:23.400Z,53.16
2023-03-29T00:45:19.095Z,53.99
2023-03-29T00:46:14.521Z,54.30
2023-03-29T00:47:10.032Z,54.01
2023-03-29T00:48:05.602Z,53.57
2023-03-29T00:49:01.142Z,53.80
2023-03-29T00:49:57.747Z,54.19
2023-03-29T00:50:53.806Z,54.82
2023-03-29T00:51:49.354Z,54.63
2023-03-29T00:52:44.886Z,54.50
2023-03-29T00:53:41.447Z,55.12
2023-03-29T00:54:26.129Z,55.25
2023-03-29T00:55:22.186Z,54.74
2023-03-29T00:56:18.797Z,54.32
2023-03-29T00:57:14.371Z,54.11
2023-03-29T00:58:10.400Z,54.94
2023-03-29T00:59:05.934Z,54.63
2023-03-29T01:00:01.478Z,54.32
2023-03-29T01:00:57.496Z,54.40
2023-03-29T01:01:53.074Z,54.50
2023-03-29T01:02:48.677Z,54.71
2023-03-29T01:03:45.317Z,54.63
2023-03-29T01:04:40.748Z,54.50
2023-03-29T01:05:36.771Z,54.40
2023-03-29T01:06:32.857Z,54.74
2023-03-29T01:07:28.358Z,54.19
2023-03-29T01:08:23.897Z,54.43
2023-03-29T01:09:19.939Z,54.74
2023-03-29T01:10:16.486Z,54.22
2023-03-29T01:11:12.055Z,54.74
2023-03-29T01:12:07.650Z,54.53
2023-03-29T01:13:03.731Z,54.94
2023-03-29T01:13:59.305Z,54.63
2023-03-29T01:14:54.842Z,55.05
2023-03-29T01:15:50.397Z,55.05
2023-03-29T01:16:47.461Z,54.32
2023-03-29T01:17:43.518Z,54.43
2023-03-29T01:19:01.565Z,55.05
2023-03-29T01:19:57.595Z,54.11
2023-03-29T01:20:53.648Z,55.15
2023-03-29T01:21:50.674Z,55.56
2023-03-29T01:22:46.226Z,54.53
2023-03-29T01:23:42.256Z,55.35
2023-03-29T01:24:37.828Z,55.35
2023-03-29T01:25:33.378Z,55.35
2023-03-29T01:26:29.418Z,56.08
2023-03-29T01:27:25.981Z,55.77
2023-03-29T01:28:22.062Z,55.15
2023-03-29T01:29:18.114Z,55.90
2023-03-29T01:30:14.133Z,56.08
2023-03-29T01:31:10.149Z,55.59
2023-03-29T01:32:06.307Z,55.56
2023-03-29T01:33:01.807Z,55.46
2023-03-29T01:33:58.784Z,55.49
2023-03-29T01:34:54.332Z,55.56
2023-03-29T01:35:49.906Z,55.38
2023-03-29T01:36:45.947Z,54.55
2023-03-29T01:37:41.494Z,55.25
2023-03-29T01:38:37.042Z,55.35
2023-03-29T01:39:32.603Z,55.66
2023-03-29T01:40:28.178Z,54.55
2023-03-29T01:41:24.224Z,55.49
2023-03-29T01:42:31.048Z,54.66
2023-03-29T01:43:27.080Z,55.46
2023-03-29T01:44:23.154Z,54.55
2023-03-29T01:45:18.684Z,54.43
2023-03-29T01:46:14.295Z,55.38
2023-03-29T01:47:09.804Z,55.69
2023-03-29T01:48:05.388Z,54.43
2023-03-29T01:49:01.369Z,55.49
2023-03-29T01:49:56.899Z,55.38
2023-03-29T01:50:52.455Z,54.97
2023-03-29T01:51:48.009Z,55.15
2023-03-29T01:52:43.575Z,55.79
2023-03-29T01:53:39.122Z,55.25
2023-03-29T01:54:34.673Z,54.32
2023-03-29T01:55:41.485Z,54.03
2023-03-29T01:56:37.132Z,55.28
2023-03-29T01:57:32.616Z,55.77
2023-03-29T01:58:28.643Z,54.55
2023-03-29T01:59:24.701Z,54.63
2023-03-29T02:00:21.341Z,55.15
2023-03-29T02:01:16.901Z,55.59
2023-03-29T02:02:12.953Z,55.69
2023-03-29T02:03:08.535Z,55.18
2023-03-29T02:04:04.489Z,55.90
2023-03-29T02:05:00.519Z,55.49
2023-03-29T02:05:56.075Z,55.49
2023-03-29T02:06:51.623Z,56.85
2023-03-29T02:07:47.185Z,56.62
2023-03-29T02:08:43.754Z,55.90
2023-03-29T02:09:39.319Z,55.90
2023-03-29T02:10:35.868Z,55.90
2023-03-29T02:11:31.416Z,56.21
2023-03-29T02:12:27.422Z,56.31
2023-03-29T02:13:23.444Z,56.00
2023-03-29T02:14:19.079Z,55.59
2023-03-29T02:15:14.637Z,55.90
2023-03-29T02:16:10.277Z,55.59
2023-03-29T02:17:05.732Z,56.13
2023-03-29T02:18:01.313Z,56.83
2023-03-29T02:18:56.841Z,57.06
2023-03-29T02:19:52.402Z,56.75
2023-03-29T02:20:47.977Z,55.69
2023-03-29T02:21:43.497Z,55.69
2023-03-29T02:22:39.060Z,55.69
2023-03-29T02:23:34.603Z,55.93
2023-03-29T02:24:30.158Z,56.65
2023-03-29T02:25:25.709Z,56.73
2023-03-29T02:26:21.292Z,56.62
2023-03-29T02:27:16.853Z,56.13
2023-03-29T02:28:12.402Z,56.31
2023-03-29T02:29:08.968Z,56.21
2023-03-29T02:30:04.575Z,56.10
2023-03-29T02:31:00.290Z,55.59
2023-03-29T02:31:55.689Z,55.38
2023-03-29T02:32:51.773Z,56.65
2023-03-29T02:33:47.259Z,56.00
2023-03-29T02:34:42.828Z,55.90
2023-03-29T02:35:38.856Z,55.49
2023-03-29T02:36:34.389Z,55.59
2023-03-29T02:37:30.426Z,56.31
2023-03-29T02:38:26.465Z,55.69
2023-03-29T02:39:22.521Z,56.10
2023-03-29T02:40:18.056Z,56.73
2023-03-29T02:41:14.072Z,57.24
2023-03-29T02:42:10.124Z,56.75
2023-03-29T02:43:05.682Z,56.93
2023-03-29T02:44:01.696Z,56.52
2023-03-29T02:44:57.253Z,56.21
2023-03-29T02:45:52.797Z,56.54
2023-03-29T02:46:48.457Z,56.13
2023-03-29T02:47:44.015Z,55.82
2023-03-29T02:48:39.520Z,55.72
2023-03-29T02:49:35.088Z,55.72
2023-03-29T02:50:30.628Z,55.62
2023-03-29T02:51:26.634Z,55.62
2023-03-29T02:52:22.215Z,56.24
2023-03-29T02:53:17.729Z,56.03
2023-03-29T02:54:13.314Z,56.13
2023-03-29T02:55:08.847Z,55.82
2023-03-29T02:56:04.403Z,56.41
2023-03-29T02:57:00.495Z,56.44
2023-03-29T02:57:55.976Z,56.24
2023-03-29T02:58:51.524Z,56.24
2023-03-29T02:59:47.082Z,56.13
2023-03-29T03:00:42.612Z,55.72
2023-03-29T03:01:38.183Z,56.13
2023-03-29T03:02:33.736Z,56.75
2023-03-29T03:03:29.418Z,56.65
2023-03-29T03:04:24.824Z,55.93
2023-03-29T03:05:20.364Z,56.44
2023-03-29T03:06:15.893Z,56.96
2023-03-29T03:07:11.922Z,56.65
2023-03-29T03:08:07.492Z,56.85
2023-03-29T03:09:02.990Z,56.54
2023-03-29T03:09:58.538Z,56.24
2023-03-29T03:10:54.089Z,56.78
2023-03-29T03:11:49.637Z,57.17
2023-03-29T03:12:45.185Z,56.85
2023-03-29T03:13:41.745Z,56.85
2023-03-29T03:14:37.304Z,56.99
2023-03-29T03:15:32.852Z,57.27
2023-03-29T03:16:29.498Z,57.09
2023-03-29T03:17:25.031Z,56.78
2023-03-29T03:18:20.481Z,57.20
2023-03-29T03:19:16.132Z,57.20
2023-03-29T03:20:11.634Z,56.47
2023-03-29T03:21:07.186Z,57.30
2023-03-29T03:22:02.752Z,56.88
2023-03-29T03:22:58.310Z,56.78
2023-03-29T03:23:55.335Z,56.57
2023-03-29T03:24:52.391Z,56.37
2023-03-29T03:25:47.941Z,56.57
2023-03-29T03:26:43.481Z,56.88
2023-03-29T03:27:40.549Z,57.20
2023-03-29T03:28:36.567Z,56.99
2023-03-29T03:29:32.114Z,56.88
2023-03-29T03:30:27.669Z,57.30
2023-03-29T03:31:23.226Z,56.91
2023-03-29T03:32:18.761Z,56.99
2023-03-29T03:33:14.309Z,57.20
2023-03-29T03:34:09.860Z,57.22
2023-03-29T03:35:05.931Z,57.30
2023-03-29T03:36:01.605Z,57.01
2023-03-29T03:36:57.007Z,56.57
2023-03-29T03:37:53.046Z,56.88
2023-03-29T03:38:49.634Z,56.99
2023-03-29T03:39:45.234Z,57.20
2023-03-29T03:40:41.254Z,57.20
2023-03-29T03:41:36.870Z,56.99
2023-03-29T03:42:32.419Z,56.99
2023-03-29T03:43:28.477Z,56.78
2023-03-29T03:44:24.528Z,56.68
2023-03-29T03:45:20.129Z,56.57
2023-03-29T03:46:17.322Z,57.09
2023-03-29T03:47:13.782Z,57.22
2023-03-29T03:48:09.387Z,57.32
2023-03-29T03:49:04.902Z,57.01
2023-03-29T03:50:00.484Z,57.12
2023-03-29T03:50:56.054Z,57.12
2023-03-29T03:51:40.757Z,57.01
2023-03-29T03:52:36.355Z,57.20
2023-03-29T03:53:31.904Z,56.88
2023-03-29T03:54:27.956Z,57.09
2023-03-29T03:55:23.576Z,56.18
2023-03-29T03:56:19.154Z,56.29
2023-03-29T03:57:14.773Z,56.88
2023-03-29T03:58:10.425Z,57.01
2023-03-29T03:59:07.024Z,56.91
2023-03-29T04:00:03.016Z,57.22
2023-03-29T04:00:58.632Z,57.01
2023-03-29T04:01:54.246Z,57.22
2023-03-29T04:02:50.840Z,56.91
2023-03-29T04:03:46.817Z,57.01
2023-03-29T04:04:42.343Z,56.91
2023-03-29T04:05:38.404Z,57.32
2023-03-29T04:06:34.473Z,56.81
2023-03-29T04:07:29.992Z,56.49
2023-03-29T04:08:26.028Z,56.81
2023-03-29T04:09:22.590Z,56.91
2023-03-29T04:10:18.622Z,57.22
2023-03-29T04:11:14.163Z,57.01
2023-03-29T04:12:09.703Z,56.49
2023-03-29T04:13:05.743Z,56.91
2023-03-29T04:14:01.296Z,57.01
2023-03-29T04:14:56.835Z,57.87
2023-03-29T04:15:52.437Z,57.01
2023-03-29T04:16:47.942Z,57.01
2023-03-29T04:17:43.578Z,57.74
2023-03-29T04:18:39.122Z,56.81
2023-03-29T04:19:34.586Z,57.24
2023-03-29T04:20:30.162Z,57.04
2023-03-29T04:21:27.168Z,57.12
2023-03-29T04:22:23.243Z,57.45
2023-03-29T04:23:20.256Z,57.35
2023-03-29T04:24:15.816Z,56.93
2023-03-29T04:25:11.414Z,57.01
2023-03-29T04:26:07.447Z,57.84
2023-03-29T04:27:03.486Z,57.22
2023-03-29T04:27:59.522Z,57.43
2023-03-29T04:28:55.077Z,57.43
2023-03-29T04:29:51.126Z,57.01
2023-03-29T04:30:46.716Z,56.81
2023-03-29T04:31:42.808Z,56.93
2023-03-29T04:32:38.826Z,56.93
2023-03-29T04:33:34.770Z,57.35
2023-03-29T04:34:30.315Z,57.24
2023-03-29T04:35:27.407Z,57.04
2023-03-29T04:36:23.042Z,56.83
2023-03-29T04:37:18.555Z,56.93
2023-03-29T04:38:14.635Z,57.87
2023-03-29T04:39:11.241Z,56.93
2023-03-29T04:40:09.367Z,56.83
2023-03-29T04:41:07.430Z,56.93
2023-03-29T04:42:03.021Z,57.43
2023-03-29T04:43:00.042Z,56.93
2023-03-29T04:43:56.204Z,57.04
2023-03-29T04:44:52.696Z,57.35
2023-03-29T04:45:48.674Z,57.04
2023-03-29T04:46:54.881Z,57.14
2023-03-29T04:47:50.908Z,56.73
2023-03-29T04:48:46.995Z,57.24
2023-03-29T04:49:43.040Z,57.45
2023-03-29T04:50:39.022Z,56.93
2023-03-29T04:51:35.071Z,57.04
2023-03-29T04:52:31.310Z,57.45
2023-03-29T04:53:28.743Z,57.45
2023-03-29T04:54:27.191Z,58.28
2023-03-29T04:55:24.211Z,58.28
2023-03-29T04:56:21.384Z,58.18
2023-03-29T04:57:19.376Z,58.39
2023-03-29T04:58:16.584Z,58.47
2023-03-29T04:59:13.672Z,58.28
2023-03-29T05:00:10.632Z,57.22
2023-03-29T05:01:06.760Z,57.14
2023-03-29T05:02:03.745Z,57.24
2023-03-29T05:03:00.749Z,57.12
2023-03-29T05:03:56.890Z,57.56
2023-03-29T05:04:52.788Z,57.45
2023-03-29T05:05:49.043Z,58.07
2023-03-29T05:06:45.072Z,57.66
2023-03-29T05:07:40.937Z,57.56
2023-03-29T05:08:37.206Z,58.07
2023-03-29T05:09:22.756Z,57.97
2023-03-29T05:10:18.936Z,58.28
2023-03-29T05:11:17.355Z,57.14
2023-03-29T05:12:14.486Z,57.35
2023-03-29T05:13:11.478Z,57.14
2023-03-29T05:14:08.692Z,57.76
2023-03-29T05:15:07.134Z,56.83
2023-03-29T05:16:03.179Z,56.93
2023-03-29T05:16:59.277Z,57.87
2023-03-29T05:17:56.354Z,56.91
2023-03-29T05:18:52.402Z,57.35
2023-03-29T05:19:48.397Z,57.32
2023-03-29T05:20:44.592Z,57.43
2023-03-29T05:21:40.490Z,57.87
2023-03-29T05:22:37.801Z,57.35
2023-03-29T05:23:34.964Z,56.81
2023-03-29T05:24:32.029Z,56.60
2023-03-29T05:25:30.483Z,57.32
2023-03-29T05:26:27.498Z,57.01
2023-03-29T05:27:23.595Z,56.91
2023-03-29T05:28:19.729Z,56.81
2023-03-29T05:29:15.696Z,57.53
2023-03-29T05:30:14.565Z,57.74
2023-03-29T05:31:10.953Z,57.12
2023-03-29T05:32:08.472Z,57.01
2023-03-29T05:33:07.120Z,57.12
2023-03-29T05:34:03.064Z,57.22
2023-03-29T05:34:59.227Z,56.91
2023-03-29T05:35:55.202Z,57.32
2023-03-29T05:36:40.367Z,57.43
2023-03-29T05:37:37.449Z,57.84
2023-03-29T05:38:35.458Z,56.81
2023-03-29T05:39:34.119Z,56.70
2023-03-29T05:40:28.838Z,56.81
2023-03-29T05:41:26.371Z,57.53
2023-03-29T05:42:25.218Z,57.12
2023-03-29T05:43:23.588Z,57.09
2023-03-29T05:44:22.351Z,56.81
2023-03-29T05:45:19.249Z,56.91
2023-03-29T05:46:30.093Z,56.81
2023-03-29T05:47:31.524Z,57.74
2023-03-29T05:48:27.513Z,57.32
2023-03-29T05:49:23.659Z,57.01
2023-03-29T05:50:19.625Z,57.32
2023-03-29T05:51:15.713Z,56.81
2023-03-29T05:52:11.727Z,56.81
2023-03-29T05:53:07.782Z,57.32
2023-03-29T05:54:03.827Z,56.78
2023-03-29T05:54:59.923Z,56.60
2023-03-29T05:55:55.950Z,56.18
2023-03-29T05:56:52.057Z,56.39
2023-03-29T05:57:48.026Z,56.88
2023-03-29T05:58:44.107Z,57.22
2023-03-29T05:59:40.137Z,56.60
2023-03-29T06:00:37.162Z,56.68
2023-03-29T06:01:33.188Z,56.68
2023-03-29T06:02:31.355Z,56.47
2023-03-29T06:03:27.632Z,55.95
2023-03-29T06:04:24.545Z,56.26
2023-03-29T06:05:20.392Z,56.16
2023-03-29T06:06:16.689Z,55.74
2023-03-29T06:07:12.533Z,55.95
2023-03-29T06:08:08.532Z,55.95
2023-03-29T06:09:04.631Z,55.64
2023-03-29T06:10:00.645Z,55.64
2023-03-29T06:10:56.638Z,55.64
2023-03-29T06:11:52.726Z,55.74
2023-03-29T06:12:48.779Z,55.43
2023-03-29T06:13:44.804Z,55.72
2023-03-29T06:14:40.872Z,55.62
2023-03-29T06:15:36.849Z,55.62
2023-03-29T06:16:32.911Z,55.51
2023-03-29T06:17:28.970Z,55.20
2023-03-29T06:18:24.983Z,56.13
2023-03-29T06:19:21.007Z,55.62
2023-03-29T06:20:17.051Z,55.51
2023-03-29T06:21:13.069Z,55.20
2023-03-29T06:22:09.106Z,55.30
2023-03-29T06:23:05.148Z,55.49
2023-03-29T06:24:01.193Z,55.18
2023-03-29T06:24:57.250Z,55.28
2023-03-29T06:25:42.471Z,55.69
2023-03-29T06:26:38.496Z,55.59
2023-03-29T06:27:34.616Z,55.93
2023-03-29T06:28:30.652Z,55.69
2023-03-29T06:29:26.813Z,55.49
2023-03-29T06:30:22.688Z,55.59
2023-03-29T06:31:18.791Z,56.00
2023-03-29T06:32:14.791Z,55.38
2023-03-29T06:33:10.854Z,55.79
2023-03-29T06:34:06.841Z,55.38
2023-03-29T06:35:02.890Z,55.18
2023-03-29T06:35:58.963Z,55.79
2023-03-29T06:36:54.966Z,55.49
2023-03-29T06:37:51.037Z,55.66
2023-03-29T06:38:47.015Z,55.69
2023-03-29T06:39:43.106Z,55.28
2023-03-29T06:40:39.146Z,55.49
2023-03-29T06:41:35.156Z,55.49
2023-03-29T06:42:31.203Z,56.10
2023-03-29T06:43:27.264Z,55.59
2023-03-29T06:44:23.296Z,55.49
2023-03-29T06:45:21.211Z,55.28
2023-03-29T06:46:15.382Z,55.79
2023-03-29T06:47:11.404Z,55.35
2023-03-29T06:48:07.502Z,55.35
2023-03-29T06:49:03.468Z,55.46
2023-03-29T06:49:59.562Z,54.32
2023-03-29T06:50:56.613Z,55.66
2023-03-29T06:51:52.664Z,55.25
2023-03-29T06:53:00.048Z,55.05
2023-03-29T06:53:56.052Z,55.35
2023-03-29T06:54:52.098Z,55.77
2023-03-29T06:55:48.124Z,54.74
2023-03-29T06:56:44.210Z,54.53
2023-03-29T06:57:40.247Z,54.84
2023-03-29T06:58:36.341Z,54.63
2023-03-29T06:59:33.299Z,55.05
2023-03-29T07:00:29.287Z,54.50
2023-03-29T07:01:25.402Z,54.30
2023-03-29T07:02:21.347Z,54.40
2023-03-29T07:03:17.482Z,54.30
2023-03-29T07:04:13.454Z,54.91
2023-03-29T07:05:09.474Z,55.64
2023-03-29T07:06:05.472Z,54.61
2023-03-29T07:07:01.861Z,54.82
2023-03-29T07:07:57.758Z,55.02
2023-03-29T07:08:54.892Z,54.99
2023-03-29T07:09:50.888Z,54.89
2023-03-29T07:10:47.941Z,55.02
2023-03-29T07:11:44.020Z,54.38
2023-03-29T07:12:41.017Z,54.99
2023-03-29T07:13:37.043Z,54.58
2023-03-29T07:14:33.105Z,54.68
2023-03-29T07:15:29.148Z,54.68
2023-03-29T07:16:25.177Z,54.06
2023-03-29T07:17:21.234Z,54.68
2023-03-29T07:18:17.278Z,53.96
2023-03-29T07:19:13.381Z,54.89
2023-03-29T07:20:09.652Z,54.58
2023-03-29T07:21:05.454Z,54.38
2023-03-29T07:22:01.456Z,54.38
2023-03-29T07:22:57.500Z,54.06
2023-03-29T07:23:53.563Z,53.94
2023-03-29T07:24:49.593Z,55.07
2023-03-29T07:25:45.691Z,55.30
2023-03-29T07:26:52.406Z,54.55
2023-03-29T07:27:37.759Z,54.25
2023-03-29T07:28:33.740Z,54.55
2023-03-29T07:29:29.783Z,54.32
2023-03-29T07:30:25.857Z,54.22
2023-03-29T07:31:21.870Z,53.70
2023-03-29T07:32:17.998Z,54.32
2023-03-29T07:33:14.109Z,54.32
2023-03-29T07:34:10.005Z,54.84
2023-03-29T07:35:06.074Z,54.71
2023-03-29T07:36:02.144Z,54.32
2023-03-29T07:36:58.156Z,54.40
2023-03-29T07:37:54.204Z,53.89
2023-03-29T07:38:51.273Z,54.50
2023-03-29T07:39:47.248Z,54.30
2023-03-29T07:40:43.296Z,53.68
2023-03-29T07:41:39.314Z,54.69
2023-03-29T07:42:35.346Z,54.19
2023-03-29T07:43:31.386Z,54.17
2023-03-29T07:44:27.449Z,54.17
2023-03-29T07:45:26.684Z,53.34
2023-03-29T07:46:19.660Z,53.34
2023-03-29T07:47:15.575Z,53.86
2023-03-29T07:48:11.703Z,53.55
2023-03-29T07:49:07.656Z,54.17
2023-03-29T07:50:04.729Z,53.45
2023-03-29T07:51:00.872Z,53.86
2023-03-29T07:51:56.760Z,54.04
2023-03-29T07:52:52.771Z,53.94
2023-03-29T07:53:49.774Z,53.53
2023-03-29T07:54:45.793Z,53.01
2023-03-29T07:55:41.851Z,54.04
2023-03-29T07:56:37.997Z,53.40
2023-03-29T07:57:34.966Z,53.71
2023-03-29T07:58:31.033Z,53.40
2023-03-29T07:59:27.029Z,53.19
2023-03-29T08:00:23.175Z,52.86
2023-03-29T08:01:19.825Z,53.06
2023-03-29T08:02:15.175Z,53.38
2023-03-29T08:03:11.275Z,52.66
2023-03-29T08:04:07.382Z,53.06
2023-03-29T08:05:03.322Z,52.96
2023-03-29T08:05:59.297Z,52.03
2023-03-29T08:06:55.384Z,51.91
2023-03-29T08:07:51.427Z,52.73
2023-03-29T08:08:47.451Z,52.83
2023-03-29T08:09:43.488Z,52.09
2023-03-29T08:10:39.668Z,52.09
2023-03-29T08:11:35.630Z,52.19
2023-03-29T08:12:31.642Z,52.40
2023-03-29T08:13:27.690Z,51.98
2023-03-29T08:14:23.775Z,51.47
2023-03-29T08:15:19.800Z,51.24
2023-03-29T08:16:15.886Z,51.65
2023-03-29T08:17:12.952Z,51.63
2023-03-29T08:18:11.020Z,51.84
2023-03-29T08:19:06.954Z,51.32
2023-03-29T08:20:02.979Z,51.12
2023-03-29T08:20:59.068Z,51.40
2023-03-29T08:21:55.143Z,51.40
2023-03-29T08:22:51.142Z,51.61
2023-03-29T08:23:48.159Z,51.37
2023-03-29T08:24:44.188Z,51.28
2023-03-29T08:25:40.236Z,51.15
2023-03-29T08:26:36.284Z,49.51
2023-03-29T08:27:32.401Z,49.91
2023-03-29T08:28:28.407Z,50.40
2023-03-29T08:29:24.429Z,49.89
2023-03-29T08:30:20.493Z,50.38
2023-03-29T08:31:16.575Z,50.07
2023-03-29T08:32:12.554Z,49.35
2023-03-29T08:33:08.608Z,49.33
2023-03-29T08:34:04.658Z,48.82
2023-03-29T08:35:00.775Z,49.02
2023-03-29T08:35:56.860Z,49.62
2023-03-29T08:36:52.853Z,49.00
2023-03-29T08:37:48.880Z,49.39
2023-03-29T08:38:44.928Z,48.98
2023-03-29T08:39:40.985Z,48.98
2023-03-29T08:40:37.023Z,48.98
2023-03-29T08:41:34.063Z,49.06
2023-03-29T08:42:30.160Z,48.44
2023-03-29T08:43:26.170Z,48.11
2023-03-29T08:44:22.179Z,48.14
2023-03-29T08:45:18.216Z,48.32
2023-03-29T08:46:14.305Z,48.01
2023-03-29T08:47:10.281Z,48.30
2023-03-29T08:48:06.388Z,48.09
2023-03-29T08:49:02.392Z,48.09
2023-03-29T08:49:58.406Z,47.86
2023-03-29T08:50:54.452Z,48.17
2023-03-29T08:51:50.535Z,47.25
2023-03-29T08:52:46.581Z,47.03
2023-03-29T08:53:42.597Z,47.41
2023-03-29T08:54:49.902Z,47.23
2023-03-29T08:55:45.939Z,46.90
2023-03-29T08:56:42.075Z,47.00
2023-03-29T08:57:39.071Z,46.98
2023-03-29T08:58:35.153Z,46.98
2023-03-29T08:59:31.184Z,46.88
2023-03-29T09:00:27.220Z,47.27
2023-03-29T09:01:23.285Z,45.72
2023-03-29T09:02:19.362Z,45.61
2023-03-29T09:03:15.412Z,45.89
2023-03-29T09:04:11.465Z,46.00
2023-03-29T09:05:07.458Z,45.67
2023-03-29T09:06:03.481Z,45.14
2023-03-29T09:07:00.539Z,44.92
2023-03-29T09:07:56.600Z,45.22
2023-03-29T09:08:52.634Z,44.10
2023-03-29T09:09:48.665Z,44.18
2023-03-29T09:10:44.666Z,44.08
2023-03-29T09:11:40.714Z,44.06
2023-03-29T09:12:37.855Z,42.83
2023-03-29T09:13:32.870Z,43.02
2023-03-29T09:14:28.793Z,42.94
2023-03-29T09:15:24.841Z,42.92
2023-03-29T09:16:21.946Z,42.69
2023-03-29T09:17:17.937Z,42.88
2023-03-29T09:18:14.081Z,42.07
2023-03-29T09:19:10.018Z,42.27
2023-03-29T09:20:06.071Z,42.35
2023-03-29T09:21:02.287Z,41.52
2023-03-29T09:21:58.181Z,42.02
2023-03-29T09:22:54.162Z,41.70
2023-03-29T09:23:50.249Z,41.60
2023-03-29T09:24:46.240Z,40.99
2023-03-29T09:25:50.984Z,41.07
2023-03-29T09:26:38.286Z,40.24
2023-03-29T09:27:34.334Z,40.85
2023-03-29T09:28:30.365Z,41.44
2023-03-29T09:29:26.384Z,40.31
2023-03-29T09:30:22.520Z,40.31
2023-03-29T09:31:18.535Z,40.29
2023-03-29T09:32:14.555Z,39.78
2023-03-29T09:33:10.657Z,38.85
2023-03-29T09:34:06.602Z,39.14
2023-03-29T09:35:02.666Z,38.71
2023-03-29T09:35:58.699Z,38.92
2023-03-29T09:36:54.746Z,38.59
2023-03-29T09:37:50.819Z,38.80
2023-03-29T09:38:46.787Z,38.17
2023-03-29T09:39:42.854Z,38.35
2023-03-29T09:40:38.887Z,38.35
2023-03-29T09:41:34.875Z,38.02
2023-03-29T09:42:30.993Z,37.41
2023-03-29T09:43:27.038Z,36.59
2023-03-29T09:44:30.824Z,36.79
2023-03-29T09:45:19.077Z,36.49
2023-03-29T09:46:15.238Z,37.38
2023-03-29T09:47:11.250Z,36.55
2023-03-29T09:48:07.272Z,35.73
2023-03-29T09:49:03.258Z,35.83
2023-03-29T09:49:59.392Z,34.63
2023-03-29T09:50:55.337Z,34.61
2023-03-29T09:51:51.369Z,34.71
2023-03-29T09:52:47.549Z,35.80
2023-03-29T09:53:43.560Z,34.88
2023-03-29T09:54:39.539Z,35.06
2023-03-29T09:55:35.651Z,33.95
2023-03-29T09:56:31.646Z,34.66
2023-03-29T09:57:27.731Z,33.75
2023-03-29T09:58:23.726Z,33.54
2023-03-29T09:59:19.819Z,34.14
2023-03-29T10:00:15.965Z,33.44
2023-03-29T10:01:12.115Z,33.54
2023-03-29T10:02:07.964Z,33.92
2023-03-29T10:03:04.100Z,32.42
2023-03-29T10:04:00.173Z,32.52
2023-03-29T10:04:56.172Z,32.90
2023-03-29T10:05:52.342Z,33.81
2023-03-29T10:06:48.387Z,32.70
2023-03-29T10:07:44.462Z,32.69
2023-03-29T10:08:41.509Z,32.29
2023-03-29T10:09:37.522Z,32.09
2023-03-29T10:10:33.569Z,32.49
2023-03-29T10:11:29.656Z,32.49
2023-03-29T10:12:25.671Z,31.27
2023-03-29T10:13:21.741Z,31.56
2023-03-29T10:14:17.782Z,31.56
2023-03-29T10:15:26.672Z,31.56
2023-03-29T10:16:10.053Z,31.34
2023-03-29T10:17:05.921Z,30.65
2023-03-29T10:18:02.059Z,30.77
2023-03-29T10:18:58.127Z,31.07
2023-03-29T10:19:54.045Z,30.77
2023-03-29T10:20:50.096Z,31.48
2023-03-29T10:21:46.134Z,31.07
2023-03-29T10:22:42.145Z,30.57
2023-03-29T10:23:38.260Z,30.55
2023-03-29T10:24:34.297Z,30.55
2023-03-29T10:25:30.437Z,30.65
2023-03-29T10:26:26.379Z,30.54
2023-03-29T10:27:22.425Z,30.64
2023-03-29T10:28:18.431Z,30.73
2023-03-29T10:29:14.500Z,30.41
2023-03-29T10:30:10.559Z,30.41
2023-03-29T10:31:06.689Z,30.51
2023-03-29T10:32:02.737Z,30.41
2023-03-29T10:32:59.805Z,30.19
2023-03-29T10:33:55.751Z,30.49
2023-03-29T10:34:52.356Z,30.10
2023-03-29T10:35:48.389Z,30.10
2023-03-29T10:36:44.456Z,29.31
2023-03-29T10:37:40.748Z,29.61
2023-03-29T10:38:36.471Z,29.41
2023-03-29T10:39:32.610Z,29.32
2023-03-29T10:40:28.635Z,30.32
2023-03-29T10:41:24.678Z,30.12
2023-03-29T10:42:20.734Z,29.52
2023-03-29T10:43:16.775Z,30.54
2023-03-29T10:44:12.840Z,30.54
2023-03-29T10:45:08.832Z,30.54
2023-03-29T10:46:04.887Z,30.54
2023-03-29T10:47:08.153Z,29.64
2023-03-29T10:48:03.747Z,30.44
2023-03-29T10:48:59.253Z,30.14
2023-03-29T10:49:56.635Z,30.84
2023-03-29T10:50:50.367Z,30.14
2023-03-29T10:51:45.911Z,30.54
2023-03-29T10:52:41.505Z,30.35
2023-03-29T10:53:37.055Z,30.27
2023-03-29T10:54:32.611Z,30.67
2023-03-29T10:55:28.167Z,30.78
2023-03-29T10:56:23.728Z,31.18
2023-03-29T10:57:20.974Z,31.88
2023-03-29T10:58:14.833Z,30.69
2023-03-29T10:59:10.377Z,30.80
2023-03-29T11:00:05.927Z,31.01
2023-03-29T11:01:01.709Z,30.61
2023-03-29T11:01:57.086Z,31.71
2023-03-29T11:02:52.738Z,31.13
2023-03-29T11:03:48.259Z,31.34
2023-03-29T11:04:43.686Z,31.04
2023-03-29T11:05:39.231Z,31.57
2023-03-29T11:06:34.795Z,32.17
2023-03-29T11:07:30.341Z,31.17
2023-03-29T11:08:25.904Z,33.08
2023-03-29T11:09:21.474Z,32.78
2023-03-29T11:10:17.018Z,32.70
2023-03-29T11:11:13.045Z,33.01
2023-03-29T11:12:20.031Z,33.40
2023-03-29T11:13:15.928Z,32.61
2023-03-29T11:14:11.491Z,32.51
2023-03-29T11:15:08.050Z,33.51
2023-03-29T11:16:04.157Z,32.63
2023-03-29T11:16:59.646Z,33.44
2023-03-29T11:17:55.247Z,34.05
2023-03-29T11:18:51.236Z,32.93
2023-03-29T11:19:47.303Z,34.07
2023-03-29T11:20:43.286Z,34.27
2023-03-29T11:21:38.838Z,34.17
2023-03-29T11:22:34.860Z,34.56
2023-03-29T11:23:30.400Z,34.27
2023-03-29T11:24:25.982Z,35.08
2023-03-29T11:25:21.530Z,34.88
2023-03-29T11:26:17.076Z,34.79
2023-03-29T11:27:13.126Z,35.10
2023-03-29T11:28:09.702Z,34.88
2023-03-29T11:29:05.705Z,34.47
2023-03-29T11:30:01.264Z,34.69
2023-03-29T11:30:56.877Z,34.59
2023-03-29T11:31:52.506Z,35.50
2023-03-29T11:32:47.981Z,35.72
2023-03-29T11:33:43.474Z,35.83
2023-03-29T11:34:39.019Z,36.13
2023-03-29T11:35:34.593Z,35.65
2023-03-29T11:36:31.132Z,35.85
2023-03-29T11:37:26.706Z,35.83
2023-03-29T11:38:22.231Z,35.83
2023-03-29T11:39:07.925Z,36.24
2023-03-29T11:40:03.990Z,36.04
2023-03-29T11:41:00.712Z,35.95
2023-03-29T11:41:56.121Z,35.85
2023-03-29T11:42:51.678Z,35.65
2023-03-29T11:43:47.727Z,36.05
2023-03-29T11:44:43.248Z,36.17
2023-03-29T11:45:39.277Z,36.88
2023-03-29T11:46:34.851Z,36.47
2023-03-29T11:47:30.890Z,36.90
2023-03-29T11:48:27.437Z,37.50
2023-03-29T11:49:23.458Z,37.30
2023-03-29T11:50:19.097Z,37.50
2023-03-29T11:51:14.644Z,37.30
2023-03-29T11:52:10.675Z,37.68
2023-03-29T11:53:06.807Z,37.20
2023-03-29T11:54:02.364Z,37.40
2023-03-29T11:54:57.960Z,37.10
2023-03-29T11:55:53.476Z,36.99
2023-03-29T11:56:49.058Z,37.20
2023-03-29T11:57:44.627Z,37.30
2023-03-29T11:58:40.648Z,37.10
2023-03-29T11:59:36.221Z,37.10
2023-03-29T12:00:31.779Z,36.90
2023-03-29T12:01:27.783Z,36.39
2023-03-29T12:02:23.949Z,36.59
2023-03-29T12:03:20.482Z,36.90